Skip to main content

NOAA/GLERL Met Station at Chicago, IL

Previous 5 days (top of hour only)
See also Previous 3 Hours (2 minute increments)
Jump down to Data
Switch to [English][Metric]
Zoom: Click and drag, Pan: shift-click and drag, Unzoom: double-click, Unzoom All




Note: Speed = mean wind during 2-minute period at top of hour,
Gust = max wind during 2-minute period at top of hour,
Peak = max wind during entire hour.
• See also 5-day windrose plot


NOAA/GLERL Met Station at Chicago, IL

Previous 5 days (top of hour only)
See also Previous 3 Hours (2 minute increments)
Jump up to Graphs
Switch to [English][Metric]
                  Wind  Wind  Wind   Air   Dew   Rel
                   Spd   Gst   Dir  Temp    Pt   Hum
YYYY-MM-DD   CDT   m/s   m/s   deg     C     C     %
2018-05-26 06:00   7.0   7.5   230  21.1  18.2  83.0
2018-05-26 05:00   5.0   5.7   217  20.7  18.5  86.8
2018-05-26 04:00   4.8   5.3   200  20.5  19.0  91.0
2018-05-26 03:00   5.0   5.2   187  21.6  19.9  90.1
2018-05-26 02:00   6.8   7.0   189  22.2  20.0  87.2
2018-05-26 01:00   6.9   8.0   203  23.0  19.1  78.3
2018-05-26 00:00   7.8   8.6   214  24.1  19.1  73.4
2018-05-25 23:00   7.3   7.6   191  23.9  18.7  72.2
2018-05-25 22:00   1.9   2.3   298  26.8  17.6  56.3
2018-05-25 21:00   3.6   4.2   263  26.7  16.6  53.2
2018-05-25 20:00   6.0   6.3   181  25.9  14.1  47.4
2018-05-25 19:00   5.6   6.7   142  19.8  14.6  71.4
2018-05-25 18:00   9.0   9.3   106  24.5  13.8  50.6
2018-05-25 17:00   8.8   8.9   108  26.8  13.8  44.1
2018-05-25 16:00   8.0   8.1   105  27.0  13.8  43.7
2018-05-25 15:00   6.9   7.8   115  23.1  14.6  58.3
2018-05-25 14:00   5.8   5.9   118  26.7  14.2  45.6
2018-05-25 13:00   2.8   3.6   167  25.4  14.6  50.5
2018-05-25 12:00   4.5   5.5   213  28.7  14.2  40.4
2018-05-25 11:00   1.3   1.9   198  26.6  14.7  47.4
2018-05-25 10:00   1.3   2.5   213  26.0  14.5  48.6
2018-05-25 09:00   3.6   3.9   208  24.4  13.8  51.2
2018-05-25 08:00   7.0   7.4   207  23.1  12.8  51.7
2018-05-25 07:00   8.9   9.5   201  22.4  12.1  51.7
2018-05-25 06:00   7.5   7.9   198  22.5  11.6  49.5
2018-05-25 05:00   7.5   7.8   200  22.4  10.9  47.6
2018-05-25 04:00   7.2   7.4   200  23.4   9.7  41.2
2018-05-25 03:00   7.2   7.4   197  22.8   9.6  42.4
2018-05-25 02:00   6.3   6.5   191  23.7   9.3  39.5
2018-05-25 01:00   4.7   4.7   197  22.9  11.1  46.7
2018-05-25 00:00   5.7   6.1   170  20.0  13.0  63.8
2018-05-24 23:00   4.1   4.4   184  19.0  12.7  66.5
2018-05-24 22:00   4.4   5.2   163  19.3  12.2  63.0
2018-05-24 21:00   5.7   6.6   138  17.7  12.0  68.7
2018-05-24 20:00   9.5   9.6   108  21.0  11.1  52.8
2018-05-24 19:00   9.5   9.7   104  23.1  11.0  46.0
2018-05-24 18:00   9.9  10.0   104  23.2  11.2  46.1
2018-05-24 17:00   9.3   9.5   101  23.9  11.4  45.0
2018-05-24 16:00   8.4   8.6   101  24.3  11.6  44.5
2018-05-24 15:00   8.6   8.6   100  23.4  12.2  48.7
2018-05-24 14:00   8.6   8.7   112  23.8  12.2  47.5
2018-05-24 13:00   8.0   8.2   121  23.8  12.6  48.9
2018-05-24 12:00   7.9   8.1   132  23.0  12.6  51.3
2018-05-24 11:00   6.3   6.5   134  22.2  13.5  57.4
2018-05-24 10:00   6.5   6.8   143  19.8  13.6  67.1
2018-05-24 09:00   3.4   4.1   164  19.4  13.7  69.0
2018-05-24 08:00   3.5   3.6   172  17.1  12.9  75.8
2018-05-24 07:00   1.5   1.7   158  18.0  12.5  69.8
2018-05-24 06:00   1.9   2.0   190  16.4  12.9  79.6
2018-05-24 05:00   1.9   2.0   166  15.7  12.9  83.3
2018-05-24 04:00   0.8   0.9   205  14.6  11.9  83.4
2018-05-24 03:00   0.6   0.8   125  14.2  11.4  83.2
2018-05-24 02:00   2.3   2.4   150  14.7  11.5  80.7
2018-05-24 01:00   1.9   2.2   153  15.0  11.9  81.5
2018-05-24 00:00   2.5   2.7   189  14.2  13.3  94.2
2018-05-23 23:00   1.3   1.6   119  13.6  13.6  99.7
2018-05-23 22:00   1.7   2.1   162  13.4  13.4  99.7
2018-05-23 21:00   2.1   2.4   145  13.1  13.0  99.4
2018-05-23 20:00   2.4   2.6   109  13.4  12.7  95.7
2018-05-23 19:00   1.2   1.6   118  15.0  13.4  90.1
2018-05-23 18:00   0.3   1.4   106  15.0  13.9  92.8
2018-05-23 17:00   2.2   2.7    88  14.6  13.4  92.5
2018-05-23 16:00   4.6   4.8    77  15.1  13.8  91.7
2018-05-23 15:00   3.7   3.7    87  15.7  12.7  82.3
2018-05-23 14:00   3.1   3.2   101  15.9  12.6  80.5
2018-05-23 13:00   2.6   2.7   124  16.2  13.3  82.7
2018-05-23 12:00   2.7   2.8   127  16.4  13.6  83.4
2018-05-23 11:00   2.1   2.2   133  15.2  13.7  90.6
2018-05-23 10:00   1.7   2.2   159  14.7  11.6  81.6
2018-05-23 09:00   0.8   0.8   100  15.9  13.0  82.7
2018-05-23 08:00   0.4   0.5   284  15.4  13.2  86.4
2018-05-23 07:00   2.4   2.5   270  13.9  12.5  91.4
2018-05-23 06:00   1.8   1.9   215  12.3  11.6  95.7
2018-05-23 05:00   2.9   3.1   185  11.4  11.4  99.8
2018-05-23 04:00   1.8   1.9   137  11.2  11.2  99.8
2018-05-23 03:00   0.5   0.7   187  12.4  11.8  95.9
2018-05-23 02:00   0.7   0.8   239  12.2  11.5  95.5
2018-05-23 01:00   4.2   4.4   206  11.7  11.5  98.9
2018-05-23 00:00   2.9   3.0   184  10.3  10.3  99.8
2018-05-22 23:00   2.4   2.4   119  10.3  10.2  99.5
2018-05-22 22:00   1.8   1.9   180  10.0  10.0  99.8
2018-05-22 21:00   1.5   1.7   172   9.5   9.5  99.8
2018-05-22 19:00   1.1   1.3    95  11.1   9.4  89.3
2018-05-22 18:00   1.5   1.8   123  10.8  10.8  99.8
2018-05-22 17:00   0.1   0.5   132  10.7  10.7  99.8
2018-05-22 16:00   2.1   2.5    21   9.3   9.3  99.8
2018-05-22 15:00   2.7   3.0     7   9.5   9.5  99.8
2018-05-22 14:00   3.9   4.5    11   9.5   9.5  99.8
2018-05-22 13:00   5.0   5.4    11   9.0   9.0  99.9
2018-05-22 12:00   4.3   4.5     6   9.1   9.1  99.8
2018-05-22 11:00   3.9   4.3    13   9.2   9.2  99.8
2018-05-22 10:00   3.8   4.2    10   8.9   8.9  99.8
2018-05-22 09:00   4.1   4.4   351   9.0   9.0  99.9
2018-05-22 08:00   5.1   5.7   336   9.4   9.4  99.9
2018-05-22 07:00   4.6   5.1   349   9.1   9.1  99.9
2018-05-22 06:00   4.4   5.1   343   9.2   9.2  99.8
2018-05-22 05:00   4.7   5.2   355   9.0   9.0  99.8
2018-05-22 04:00   3.8   4.1   340   9.1   9.1  99.8
2018-05-22 03:00   5.2   7.1   352   8.9   8.9  99.9
2018-05-22 02:00   4.0   4.4   355   9.1   9.1  99.9
2018-05-22 01:00   4.6   5.2   349   9.3   9.3  99.9
2018-05-22 00:00   5.1   5.6   355   9.9   9.9  99.8
2018-05-21 23:00   3.7   3.8     9  10.7  10.7  99.8
2018-05-21 22:00   4.9   5.2   332  10.0  10.0  99.8
2018-05-21 21:00   6.1   6.4   340   9.8   9.8  99.8
2018-05-21 20:00   3.2   3.5   359  12.7  12.7  99.8
2018-05-21 19:00   3.9   4.0   107  14.5  14.5  99.8